createdAt,value
2022-12-19T00:04:51.245Z,0.73
2022-12-19T00:09:56.494Z,1.20
2022-12-19T00:14:59.850Z,0.90
2022-12-19T00:20:05.902Z,1.15
2022-12-19T00:25:15.588Z,2.05
2022-12-19T00:30:24.808Z,0.80
2022-12-19T00:35:27.950Z,0.85
2022-12-19T00:40:31.531Z,1.40
2022-12-19T00:45:39.287Z,0.63
2022-12-19T00:50:42.389Z,0.93
2022-12-19T00:55:47.841Z,1.08
2022-12-19T01:00:56.480Z,0.88
2022-12-19T01:05:59.681Z,1.00
2022-12-19T01:11:03.570Z,1.15
2022-12-19T01:16:14.241Z,1.10
2022-12-19T01:21:18.619Z,1.83
2022-12-19T01:26:21.617Z,0.70
2022-12-19T01:31:29.833Z,1.20
2022-12-19T01:36:33.126Z,1.25
2022-12-19T01:41:41.226Z,1.17
2022-12-19T01:46:52.577Z,0.93
2022-12-19T01:52:04.220Z,1.02
2022-12-19T01:57:23.464Z,2.00
2022-12-19T02:03:13.470Z,0.88
2022-12-19T02:08:43.714Z,0.50
2022-12-19T02:13:47.647Z,0.68
2022-12-19T02:18:54.253Z,0.88
2022-12-19T02:24:42.140Z,3.78
2022-12-19T02:30:05.364Z,5.00
2022-12-19T02:35:37.476Z,2.50
2022-12-19T02:41:01.175Z,1.40
2022-12-19T02:46:15.746Z,2.15
2022-12-19T02:51:27.326Z,2.70
2022-12-19T02:56:36.714Z,2.90
2022-12-19T03:02:02.066Z,1.63
2022-12-19T03:07:35.533Z,1.88
2022-12-19T03:12:54.554Z,1.20
2022-12-19T03:18:03.749Z,1.92
2022-12-19T03:23:12.910Z,1.77
2022-12-19T03:28:49.728Z,1.10
2022-12-19T03:34:06.924Z,1.45
2022-12-19T03:39:19.635Z,1.20
2022-12-19T03:44:35.024Z,1.00
2022-12-19T03:49:49.587Z,0.70
2022-12-19T03:55:42.679Z,0.50
2022-12-19T04:01:02.665Z,0.53
2022-12-19T04:06:13.705Z,0.60
2022-12-19T04:11:28.904Z,0.75
2022-12-19T04:17:31.253Z,1.48
2022-12-19T04:23:02.360Z,0.98
2022-12-19T04:28:32.403Z,0.85
2022-12-19T04:33:52.722Z,0.50
2022-12-19T04:39:01.789Z,0.65
2022-12-19T04:44:13.176Z,0.30
2022-12-19T04:49:26.479Z,1.35
2022-12-19T04:54:55.586Z,1.65
2022-12-19T05:00:15.700Z,0.63
2022-12-19T05:05:26.448Z,0.90
2022-12-19T05:10:42.554Z,1.00
2022-12-19T05:16:08.169Z,0.75
2022-12-19T05:21:28.220Z,1.35
2022-12-19T05:26:56.355Z,0.88
2022-12-19T05:32:06.725Z,1.23
2022-12-19T05:37:28.183Z,1.10
2022-12-19T05:42:53.168Z,1.27
2022-12-19T05:48:01.201Z,1.50
2022-12-19T05:53:04.890Z,1.50
2022-12-19T05:58:08.198Z,1.13
2022-12-19T06:03:11.279Z,0.73
2022-12-19T06:08:13.947Z,1.17
2022-12-19T06:13:22.103Z,1.45
2022-12-19T06:18:29.395Z,1.88
2022-12-19T06:23:35.792Z,1.15
2022-12-19T06:28:39.349Z,1.20
2022-12-19T06:33:42.753Z,1.02
2022-12-19T06:38:45.428Z,2.25
2022-12-19T06:43:53.354Z,2.95
2022-12-19T06:48:56.498Z,4.22
2022-12-19T06:53:59.553Z,6.38
2022-12-19T06:59:02.759Z,13.85
2022-12-19T07:04:07.028Z,5.82
2022-12-19T07:09:10.115Z,4.37
2022-12-19T07:14:14.348Z,3.70
2022-12-19T07:19:17.288Z,3.40
2022-12-19T07:24:20.577Z,3.78
2022-12-19T07:29:23.959Z,3.97
2022-12-19T07:34:27.192Z,2.88
2022-12-19T07:39:30.338Z,2.70
2022-12-19T07:44:33.835Z,2.45
2022-12-19T07:49:37.170Z,1.23
2022-12-19T07:54:43.060Z,1.80
2022-12-19T07:59:46.808Z,3.08
2022-12-19T08:04:49.575Z,4.43
2022-12-19T08:09:52.313Z,5.72
2022-12-19T08:14:57.269Z,2.85
2022-12-19T08:20:00.173Z,3.30
2022-12-19T08:25:03.287Z,2.05
2022-12-19T08:30:07.512Z,2.00
2022-12-19T08:35:12.468Z,1.90
2022-12-19T08:40:15.517Z,2.47
2022-12-19T08:45:18.863Z,2.58
2022-12-19T08:50:21.901Z,2.45
2022-12-19T08:55:25.874Z,3.00
2022-12-19T09:00:31.364Z,3.08
2022-12-19T09:06:04.392Z,3.00
2022-12-19T09:11:06.312Z,2.30
2022-12-19T09:16:22.592Z,4.60
2022-12-19T09:21:29.511Z,3.42
2022-12-19T09:26:33.676Z,2.95
2022-12-19T09:31:37.485Z,2.85
2022-12-19T09:36:40.763Z,2.83
2022-12-19T09:41:58.659Z,3.63
2022-12-19T09:47:21.194Z,2.10
2022-12-19T09:52:27.786Z,3.47
2022-12-19T09:57:49.410Z,2.75
2022-12-19T10:02:59.930Z,2.97
2022-12-19T10:08:09.328Z,2.75
2022-12-19T10:14:15.968Z,3.33
2022-12-19T10:19:54.765Z,1.83
2022-12-19T10:25:33.514Z,1.80
2022-12-19T10:30:46.634Z,2.58
2022-12-19T10:36:02.362Z,2.00
2022-12-19T10:41:23.307Z,2.33
2022-12-19T10:46:49.915Z,1.88
2022-12-19T10:52:05.897Z,2.38
2022-12-19T10:57:29.852Z,2.58
2022-12-19T11:02:51.807Z,2.33
2022-12-19T11:08:08.084Z,2.70
2022-12-19T11:16:04.349Z,3.25
2022-12-19T11:29:15.299Z,2.92
2022-12-19T11:29:44.094Z,4.23
2022-12-19T11:35:37.167Z,3.25
2022-12-19T11:40:55.493Z,3.03
2022-12-19T11:46:21.699Z,3.35
2022-12-19T11:52:09.141Z,3.40
2022-12-19T11:57:19.175Z,4.03
2022-12-19T12:02:37.135Z,7.43
2022-12-19T12:08:42.820Z,3.88
2022-12-19T12:19:03.229Z,4.10
2022-12-19T12:31:28.205Z,5.25
2022-12-19T12:31:41.323Z,5.28
2022-12-19T12:31:42.403Z,4.32
2022-12-19T12:42:19.345Z,4.78
2022-12-19T12:47:27.696Z,4.40
2022-12-19T12:52:39.311Z,4.38
2022-12-19T12:57:42.436Z,4.93
2022-12-19T13:03:07.324Z,4.30
2022-12-19T13:08:34.653Z,4.95
2022-12-19T13:13:55.867Z,5.28
2022-12-19T13:19:31.011Z,5.20
2022-12-19T13:24:58.828Z,4.82
2022-12-19T13:30:01.454Z,5.70
2022-12-19T13:39:00.146Z,6.18
2022-12-19T13:41:58.230Z,6.90
2022-12-19T13:47:00.832Z,6.57
2022-12-19T13:52:05.642Z,5.78
2022-12-19T13:57:25.146Z,7.05
2022-12-19T14:02:44.038Z,6.55
2022-12-19T14:07:50.380Z,7.18
2022-12-19T14:13:43.554Z,7.50
2022-12-19T14:18:42.814Z,6.68
2022-12-19T14:23:47.551Z,6.80
2022-12-19T14:29:00.694Z,6.82
2022-12-19T14:34:35.562Z,8.45
2022-12-19T14:39:33.186Z,8.88
2022-12-19T14:52:51.807Z,6.82
2022-12-19T14:54:23.526Z,9.70
2022-12-19T14:56:52.082Z,12.68
2022-12-19T15:02:06.739Z,10.35
2022-12-19T15:07:18.504Z,11.40
2022-12-19T15:14:49.556Z,9.98
2022-12-19T15:18:41.202Z,13.77
2022-12-19T15:23:46.960Z,12.00
2022-12-19T15:28:53.273Z,12.77
2022-12-19T15:39:20.514Z,11.95
2022-12-19T15:44:40.478Z,12.57
2022-12-19T15:49:43.292Z,12.85
2022-12-19T15:54:48.594Z,13.60
2022-12-19T15:59:52.674Z,11.15
2022-12-19T16:05:03.255Z,12.88
2022-12-19T16:10:08.611Z,13.30
2022-12-19T16:15:28.005Z,11.57
2022-12-19T16:20:39.536Z,29.73
2022-12-19T16:25:50.361Z,21.30
2022-12-19T16:30:53.401Z,21.85
2022-12-19T16:36:06.075Z,21.95
2022-12-19T16:41:26.003Z,16.60
2022-12-19T16:46:30.963Z,18.85
2022-12-19T16:51:33.704Z,20.15
2022-12-19T16:57:06.905Z,13.82
2022-12-19T17:02:49.682Z,14.23
2022-12-19T17:07:54.963Z,15.50
2022-12-19T17:12:59.064Z,16.88
2022-12-19T17:18:09.675Z,17.13
2022-12-19T17:23:19.761Z,18.55
2022-12-19T17:28:22.865Z,16.05
2022-12-19T17:33:40.032Z,17.02
2022-12-19T17:38:42.920Z,15.07
2022-12-19T17:43:46.593Z,14.65
2022-12-19T17:48:53.407Z,16.90
2022-12-19T17:53:57.574Z,17.55
2022-12-19T17:59:00.804Z,16.20
2022-12-19T18:04:03.887Z,20.30
2022-12-19T18:09:08.325Z,17.88
2022-12-19T18:14:21.943Z,20.70
2022-12-19T18:19:51.657Z,20.52
2022-12-19T18:39:27.375Z,16.35
2022-12-19T18:44:30.384Z,16.10
2022-12-19T18:49:36.649Z,15.48
2022-12-19T18:54:39.423Z,15.23
2022-12-19T18:59:42.002Z,16.75
2022-12-19T19:04:50.991Z,15.15
2022-12-19T19:10:02.743Z,16.15
2022-12-19T19:16:17.118Z,16.77
2022-12-19T19:27:17.279Z,15.13
2022-12-19T19:32:20.053Z,14.25
2022-12-19T19:37:23.332Z,13.55
2022-12-19T19:42:25.920Z,15.40
2022-12-19T19:47:31.745Z,14.20
2022-12-19T19:52:34.677Z,15.52
2022-12-19T19:57:37.567Z,13.73
2022-12-19T20:02:40.683Z,14.20
2022-12-19T20:07:43.631Z,13.18
2022-12-19T20:12:46.896Z,14.05
2022-12-19T20:17:51.544Z,16.02
2022-12-19T20:22:54.871Z,13.57
2022-12-19T20:27:57.556Z,15.23
2022-12-19T20:33:00.246Z,16.52
2022-12-19T20:38:03.479Z,17.48
2022-12-19T20:43:11.425Z,16.00
2022-12-19T20:48:14.420Z,15.80
2022-12-19T20:53:17.121Z,13.07
2022-12-19T20:58:19.956Z,13.07
2022-12-19T21:03:28.798Z,12.45
2022-12-19T21:08:32.696Z,12.35
2022-12-19T21:13:36.530Z,12.68
2022-12-19T21:18:42.422Z,11.95
2022-12-19T21:29:16.933Z,12.70
2022-12-19T21:34:19.583Z,13.20
2022-12-19T21:39:25.488Z,14.13
2022-12-19T21:44:28.520Z,13.20
2022-12-19T21:49:43.714Z,13.73
2022-12-19T21:54:59.675Z,13.52
2022-12-19T22:00:05.283Z,14.48
2022-12-19T22:05:08.431Z,12.52
2022-12-19T22:10:13.777Z,14.15
2022-12-19T22:15:16.454Z,13.55
2022-12-19T22:20:19.031Z,12.63
2022-12-19T22:25:21.620Z,14.13
2022-12-19T22:30:24.294Z,12.57
2022-12-19T22:35:45.099Z,12.30
2022-12-19T22:41:13.890Z,12.95
2022-12-19T22:48:21.021Z,12.57
2022-12-19T22:52:15.983Z,13.25
2022-12-19T22:57:18.692Z,12.82
2022-12-19T23:02:21.393Z,11.90
2022-12-19T23:07:24.098Z,13.40
2022-12-19T23:12:29.475Z,12.00
2022-12-19T23:17:40.863Z,13.38
2022-12-19T23:22:43.789Z,13.10
2022-12-19T23:27:47.335Z,12.75
2022-12-19T23:33:17.055Z,11.88
2022-12-19T23:38:19.660Z,13.38
2022-12-19T23:43:22.486Z,12.48
2022-12-19T23:48:26.643Z,12.38
2022-12-19T23:53:46.659Z,12.50
2022-12-19T23:59:16.579Z,11.95
